Time;durP1;ratioP1;P1;durP2;ratioP2;P2;SDS_P1;SDS_P2;PMS_P1;PMS_P2;Temp;Humidity;BMP_temperature;BMP_pressure;BME280_temperature;BME280_humidity;BME280_pressure;Samples;Min_cycle;Max_cycle;Signal;HPM_P1;HPM_P2
2022/04/08 00:01:50;;;;;;;2.80;2.40;;;9.50;99.90;;;;;;5036577;28;20578;-68
2022/04/08 00:04:15;;;;;;;2.30;2.13;;;9.50;99.90;;;;;;5052380;28;20499;-68
2022/04/08 00:06:41;;;;;;;2.20;2.00;;;9.60;99.90;;;;;;5052358;28;20618;-72
2022/04/08 00:09:07;;;;;;;2.53;2.33;;;9.50;99.90;;;;;;5050523;28;20182;-68
2022/04/08 00:11:32;;;;;;;2.77;2.50;;;9.20;99.90;;;;;;5052637;28;20277;-68
2022/04/08 00:14:00;;;;;;;5.83;4.20;;;9.50;99.90;;;;;;5051096;28;20196;-68
2022/04/08 00:16:26;;;;;;;5.63;3.17;;;9.50;99.90;;;;;;5040246;28;20170;-68
2022/04/08 00:18:52;;;;;;;3.80;3.00;;;9.60;99.90;;;;;;5031447;28;20436;-68
2022/04/08 00:21:18;;;;;;;3.10;2.80;;;9.60;99.90;;;;;;5031204;28;20460;-68
2022/04/08 00:23:45;;;;;;;3.60;3.30;;;9.50;99.90;;;;;;5031576;28;20460;-69
2022/04/08 00:26:11;;;;;;;3.20;3.00;;;9.40;99.90;;;;;;5032915;28;20488;-68
2022/04/08 00:28:37;;;;;;;4.20;3.27;;;9.50;99.90;;;;;;5030979;28;20229;-68
2022/04/08 00:31:04;;;;;;;5.70;3.03;;;9.00;99.90;;;;;;5043146;28;20775;-68
2022/04/08 00:33:33;;;;;;;2.97;2.70;;;9.30;99.90;;;;;;5051877;28;20409;-68
2022/04/08 00:35:59;;;;;;;5.90;3.37;;;9.30;99.90;;;;;;5050972;28;20430;-68
2022/04/08 00:38:25;;;;;;;4.73;2.93;;;9.20;99.90;;;;;;5052124;28;20455;-68
2022/04/08 00:40:51;;;;;;;4.67;3.37;;;9.20;99.90;;;;;;5044213;28;20840;-68
2022/04/08 00:43:18;;;;;;;4.47;2.97;;;9.20;99.90;;;;;;5030949;28;20508;-68
2022/04/08 00:45:44;;;;;;;3.07;2.70;;;9.20;99.90;;;;;;5031660;28;20182;-72
2022/04/08 00:48:11;;;;;;;4.93;3.60;;;9.10;99.90;;;;;;5032067;28;20495;-69
2022/04/08 00:50:43;;;;;;;4.50;3.80;;;9.30;99.90;;;;;;5031970;28;20516;-68
2022/04/08 00:53:10;;;;;;;7.17;3.57;;;9.40;99.90;;;;;;5031519;28;20417;-69
2022/04/08 00:55:37;;;;;;;4.33;3.77;;;9.30;99.90;;;;;;5033841;28;20416;-68
2022/04/08 00:58:04;;;;;;;4.53;3.23;;;9.30;99.90;;;;;;5035303;28;20455;-69
2022/04/08 01:00:36;;;;;;;2.90;2.70;;;9.10;99.90;;;;;;5034956;28;21119;-68
2022/04/08 01:03:03;;;;;;;2.90;2.73;;;9.20;99.90;;;;;;5034940;28;20975;-68
2022/04/08 01:05:28;;;;;;;3.60;2.90;;;8.80;99.90;;;;;;5036097;28;20966;-68
2022/04/08 01:07:55;;;;;;;3.40;3.10;;;8.70;99.90;;;;;;5055120;28;20567;-68
2022/04/08 01:10:21;;;;;;;3.60;3.30;;;8.80;99.90;;;;;;5055878;28;20275;-68
2022/04/08 01:12:49;;;;;;;3.50;3.20;;;8.80;99.90;;;;;;5055051;28;20420;-72
2022/04/08 01:15:19;;;;;;;3.97;3.67;;;8.80;99.90;;;;;;5055423;28;20408;-68
2022/04/08 01:17:46;;;;;;;4.00;3.70;;;9.00;99.90;;;;;;5055367;28;20415;-72
2022/04/08 01:20:13;;;;;;;4.83;3.90;;;8.30;99.90;;;;;;5032326;28;20463;-68
2022/04/08 01:22:39;;;;;;;6.60;3.90;;;8.70;99.90;;;;;;5040470;28;20797;-68
2022/04/08 01:25:09;;;;;;;3.83;3.50;;;8.90;99.90;;;;;;5054446;28;21033;-68
2022/04/08 01:27:35;;;;;;;4.03;3.13;;;8.80;99.90;;;;;;5055635;28;20399;-68
2022/04/08 01:30:03;;;;;;;4.63;3.53;;;8.80;99.90;;;;;;5053925;28;20789;-68
2022/04/08 01:32:29;;;;;;;4.70;3.80;;;8.80;99.90;;;;;;5041947;28;20196;-68
2022/04/08 01:34:54;;;;;;;3.20;3.00;;;8.80;99.90;;;;;;5034919;28;20405;-68
2022/04/08 01:37:21;;;;;;;7.77;4.47;;;8.90;99.90;;;;;;5017203;28;20187;-68
2022/04/08 01:39:46;;;;;;;6.00;4.33;;;8.70;99.90;;;;;;5034903;28;20428;-73
2022/04/08 01:42:12;;;;;;;4.33;3.93;;;8.70;99.90;;;;;;5035287;28;20467;-68
2022/04/08 01:44:38;;;;;;;4.73;4.10;;;8.70;99.90;;;;;;5035156;28;20185;-67
2022/04/08 01:47:05;;;;;;;6.87;6.20;;;8.70;99.90;;;;;;5034702;28;20178;-68
2022/04/08 01:49:31;;;;;;;5.43;4.80;;;8.70;99.90;;;;;;5046659;28;20454;-68
2022/04/08 01:51:57;;;;;;;11.23;5.43;;;8.80;99.90;;;;;;5054043;28;20443;-68
2022/04/08 01:54:23;;;;;;;5.90;4.33;;;8.80;99.90;;;;;;5054986;28;20458;-68
2022/04/08 01:56:48;;;;;;;6.60;5.10;;;8.60;99.90;;;;;;5050651;28;20417;-71
2022/04/08 01:59:15;;;;;;;4.73;3.60;;;8.80;99.90;;;;;;5034894;28;20244;-68
2022/04/08 02:01:41;;;;;;;4.30;3.70;;;8.60;99.90;;;;;;5034942;28;20214;-68
2022/04/08 02:04:06;;;;;;;7.33;4.27;;;8.20;99.90;;;;;;5033877;28;21096;-68
2022/04/08 02:06:34;;;;;;;5.30;4.50;;;8.60;99.90;;;;;;5033915;28;20405;-68
2022/04/08 02:09:01;;;;;;;5.90;3.40;;;8.60;99.90;;;;;;5034026;28;20237;-68
2022/04/08 02:11:26;;;;;;;4.20;2.73;;;8.60;99.90;;;;;;5051893;28;20927;-68
2022/04/08 02:13:52;;;;;;;5.17;3.03;;;8.60;99.90;;;;;;5053614;28;20428;-69
2022/04/08 02:16:18;;;;;;;2.43;2.23;;;8.60;99.90;;;;;;5069658;28;20907;-68
2022/04/08 02:18:44;;;;;;;4.10;2.47;;;8.50;99.90;;;;;;5054862;28;20184;-68
2022/04/08 02:21:10;;;;;;;3.80;2.80;;;8.50;99.90;;;;;;5053136;28;20221;-68
2022/04/08 02:23:36;;;;;;;6.60;2.93;;;8.60;99.90;;;;;;5037735;28;20510;-68
2022/04/08 02:26:06;;;;;;;6.33;3.20;;;8.90;99.90;;;;;;5032525;28;20762;-68
2022/04/08 02:28:35;;;;;;;3.53;3.00;;;8.60;99.90;;;;;;5034763;28;20424;-69
2022/04/08 02:31:01;;;;;;;5.40;3.00;;;8.60;99.90;;;;;;5048871;28;20425;-68
2022/04/08 02:33:26;;;;;;;3.27;2.80;;;8.70;99.90;;;;;;5016537;28;20417;-68
2022/04/08 02:35:53;;;;;;;3.40;3.17;;;8.60;99.90;;;;;;5033537;28;20189;-70
2022/04/08 02:38:18;;;;;;;4.67;3.27;;;8.70;99.90;;;;;;5033156;28;20186;-68
2022/04/08 02:40:45;;;;;;;5.70;3.17;;;8.70;99.90;;;;;;5033801;28;20420;-68
2022/04/08 02:43:11;;;;;;;6.73;3.73;;;8.70;99.90;;;;;;5033389;28;20267;-68
2022/04/08 02:45:37;;;;;;;5.60;3.27;;;8.80;99.90;;;;;;5033744;28;20417;-68
2022/04/08 02:48:03;;;;;;;10.23;3.80;;;8.60;99.90;;;;;;5043698;28;20185;-68
2022/04/08 02:50:29;;;;;;;5.97;3.87;;;8.60;99.90;;;;;;5053480;28;20426;-68
2022/04/08 02:52:55;;;;;;;8.90;3.47;;;8.60;99.90;;;;;;5053241;28;20824;-69
2022/04/08 02:55:21;;;;;;;3.50;3.30;;;8.70;99.90;;;;;;5052429;28;20443;-68
2022/04/08 02:57:47;;;;;;;8.50;3.97;;;8.70;99.90;;;;;;5053639;28;20197;-68
2022/04/08 03:00:18;;;;;;;4.80;3.40;;;9.00;99.90;;;;;;5044899;28;20440;-68
2022/04/08 03:02:45;;;;;;;6.70;3.80;;;8.70;99.90;;;;;;5033613;28;20441;-68
2022/04/08 03:05:12;;;;;;;6.20;4.07;;;8.70;99.90;;;;;;5033131;28;20429;-68
2022/04/08 03:07:37;;;;;;;5.77;5.00;;;8.80;99.90;;;;;;5034021;28;20445;-68
2022/04/08 03:10:05;;;;;;;7.20;5.10;;;8.90;99.90;;;;;;5033214;28;20456;-68
2022/04/08 03:12:31;;;;;;;9.53;5.10;;;8.70;99.90;;;;;;5033338;28;20216;-68
2022/04/08 03:14:58;;;;;;;5.33;4.83;;;8.80;99.90;;;;;;5032809;28;20414;-69
2022/04/08 03:17:24;;;;;;;10.57;5.30;;;8.80;99.90;;;;;;5036112;28;20412;-68
2022/04/08 03:19:50;;;;;;;7.60;4.67;;;8.80;99.90;;;;;;5052803;28;20431;-68
2022/04/08 03:22:19;;;;;;;6.73;5.90;;;8.80;99.90;;;;;;5052654;28;20209;-67
2022/04/08 03:24:46;;;;;;;6.13;5.30;;;8.90;99.90;;;;;;5053418;28;20185;-68
2022/04/08 03:27:12;;;;;;;7.50;5.00;;;8.40;99.90;;;;;;5052222;28;20419;-68
2022/04/08 03:29:37;;;;;;;5.57;4.63;;;8.90;99.90;;;;;;5053306;28;20407;-68
2022/04/08 03:32:04;;;;;;;6.87;4.30;;;8.90;99.90;;;;;;5050349;28;20188;-67
2022/04/08 03:34:29;;;;;;;10.50;5.30;;;8.70;99.90;;;;;;5052809;28;20186;-67
2022/04/08 03:36:55;;;;;;;7.10;4.60;;;8.90;99.90;;;;;;5056209;28;20927;-70
2022/04/08 03:39:22;;;;;;;7.57;5.00;;;8.80;99.90;;;;;;5033197;28;20175;-67
2022/04/08 03:41:48;;;;;;;8.30;4.20;;;8.80;99.90;;;;;;5032697;28;20246;-68
2022/04/08 03:44:14;;;;;;;4.83;3.80;;;8.80;99.90;;;;;;5032283;28;20433;-67
2022/04/08 03:46:41;;;;;;;11.40;4.93;;;8.90;99.90;;;;;;5046016;28;20182;-67
2022/04/08 03:49:14;;;;;;;9.13;3.73;;;9.00;99.90;;;;;;5048886;28;20427;-67
2022/04/08 03:51:43;;;;;;;7.03;4.00;;;8.90;99.90;;;;;;5052706;28;20888;-67
2022/04/08 03:54:09;;;;;;;5.03;4.17;;;8.90;99.90;;;;;;5034082;28;20465;-67
2022/04/08 03:56:36;;;;;;;8.10;4.33;;;9.00;99.90;;;;;;5061076;28;20467;-67
2022/04/08 03:59:02;;;;;;;7.73;3.93;;;8.90;99.90;;;;;;5050482;28;20427;-67
2022/04/08 04:01:28;;;;;;;9.70;4.77;;;8.90;99.90;;;;;;5051234;28;21008;-67
2022/04/08 04:03:54;;;;;;;5.80;4.83;;;8.70;99.90;;;;;;5052352;28;20408;-71
2022/04/08 04:06:19;;;;;;;6.93;5.43;;;8.90;99.90;;;;;;5050750;28;20919;-67
2022/04/08 04:08:45;;;;;;;8.50;5.77;;;8.90;99.90;;;;;;5049664;28;20219;-67
2022/04/08 04:11:16;;;;;;;5.40;4.90;;;8.90;99.90;;;;;;5051422;28;20188;-67
2022/04/08 04:13:45;;;;;;;10.43;5.20;;;9.00;99.90;;;;;;5049239;28;20253;-67
2022/04/08 04:16:11;;;;;;;6.60;4.60;;;9.20;99.90;;;;;;5051062;28;20526;-67
2022/04/08 04:18:38;;;;;;;15.40;5.97;;;8.70;99.90;;;;;;5052621;28;20726;-67
2022/04/08 04:21:04;;;;;;;7.40;5.00;;;9.00;99.90;;;;;;5050051;28;20479;-68
2022/04/08 04:23:33;;;;;;;8.80;5.17;;;9.00;99.90;;;;;;5050959;28;20431;-67
2022/04/08 04:26:00;;;;;;;6.27;4.77;;;9.00;99.90;;;;;;5049532;28;20415;-67
2022/04/08 04:28:29;;;;;;;4.50;3.90;;;8.60;99.90;;;;;;5051778;28;20408;-67
2022/04/08 04:30:56;;;;;;;4.00;3.00;;;8.90;99.90;;;;;;5051480;28;20412;-72
2022/04/08 04:33:22;;;;;;;4.53;2.83;;;8.50;99.90;;;;;;5051689;28;20507;-67
2022/04/08 04:35:48;;;;;;;3.03;2.80;;;8.80;99.90;;;;;;5051410;28;20512;-67
2022/04/08 04:38:14;;;;;;;7.20;3.67;;;8.80;99.90;;;;;;5050994;28;20543;-67
2022/04/08 04:40:39;;;;;;;2.87;2.63;;;8.80;99.90;;;;;;5051916;28;20421;-67
2022/04/08 04:43:05;;;;;;;3.53;2.20;;;8.90;99.40;;;;;;5051072;28;20205;-68
2022/04/08 04:45:31;;;;;;;8.10;3.77;;;9.00;99.60;;;;;;5046780;28;20186;-69
2022/04/08 04:47:57;;;;;;;5.43;3.00;;;8.90;99.80;;;;;;5051692;28;20591;-72
2022/04/08 04:50:23;;;;;;;4.03;2.90;;;8.90;99.50;;;;;;5057091;28;20426;-67
2022/04/08 04:52:48;;;;;;;4.53;4.07;;;8.80;99.50;;;;;;5035352;28;20185;-67
2022/04/08 04:55:14;;;;;;;5.80;4.40;;;8.80;99.80;;;;;;5051495;28;20174;-68
2022/04/08 04:57:40;;;;;;;6.43;5.10;;;8.70;99.90;;;;;;5052677;28;20190;-67
2022/04/08 05:00:09;;;;;;;5.23;4.63;;;8.80;99.90;;;;;;5049549;28;20272;-68
2022/04/08 05:02:35;;;;;;;6.77;4.40;;;8.80;99.90;;;;;;5051820;28;20486;-67
2022/04/08 05:05:01;;;;;;;5.57;4.50;;;8.80;99.90;;;;;;5050472;28;20915;-68
2022/04/08 05:07:27;;;;;;;8.37;4.77;;;8.80;99.90;;;;;;5053848;28;20424;-67
2022/04/08 05:09:53;;;;;;;5.47;4.50;;;8.90;99.90;;;;;;5033910;28;20177;-68
2022/04/08 05:12:18;;;;;;;6.37;4.80;;;8.80;99.90;;;;;;5048796;28;20271;-68
2022/04/08 05:14:44;;;;;;;6.33;4.57;;;8.90;99.90;;;;;;5040925;28;20526;-67
2022/04/08 05:17:10;;;;;;;6.03;5.50;;;8.90;99.90;;;;;;5051827;28;20536;-67
2022/04/08 05:19:36;;;;;;;7.87;5.83;;;8.90;99.90;;;;;;5051824;28;20569;-67
2022/04/08 05:22:02;;;;;;;6.87;5.80;;;8.40;99.90;;;;;;5037857;28;20542;-70
2022/04/08 05:24:27;;;;;;;8.63;5.97;;;8.70;99.90;;;;;;5049198;28;20187;-67
2022/04/08 05:26:53;;;;;;;8.07;5.77;;;8.60;99.90;;;;;;5038640;28;20170;-67
2022/04/08 05:29:20;;;;;;;11.73;6.63;;;8.80;99.90;;;;;;5056213;28;20264;-67
2022/04/08 05:31:47;;;;;;;6.40;5.80;;;8.60;99.90;;;;;;5044007;28;20178;-67
2022/04/08 05:34:13;;;;;;;9.33;6.43;;;8.70;99.90;;;;;;5050949;28;20430;-67
2022/04/08 05:36:38;;;;;;;6.40;5.00;;;8.70;99.90;;;;;;5047488;28;20417;-66
2022/04/08 05:39:04;;;;;;;6.30;5.30;;;8.60;99.90;;;;;;5050619;28;20473;-67
2022/04/08 05:41:30;;;;;;;6.70;4.40;;;8.60;99.90;;;;;;5054181;28;20209;-67
2022/04/08 05:43:56;;;;;;;6.90;4.43;;;8.80;99.90;;;;;;5053771;28;20185;-67
2022/04/08 05:46:21;;;;;;;10.07;6.03;;;8.60;99.90;;;;;;5054502;28;20178;-67
2022/04/08 05:48:47;;;;;;;6.43;3.80;;;8.60;99.90;;;;;;5055197;28;20178;-67
2022/04/08 05:51:13;;;;;;;4.10;3.27;;;8.60;99.90;;;;;;5054017;28;20182;-66
2022/04/08 05:53:38;;;;;;;4.73;4.30;;;8.80;99.90;;;;;;5054405;28;20322;-67
2022/04/08 05:56:04;;;;;;;4.87;4.47;;;8.70;99.90;;;;;;5069527;28;20258;-67
2022/04/08 05:58:31;;;;;;;6.73;4.00;;;8.70;99.90;;;;;;5054462;28;20173;-67
2022/04/08 06:00:57;;;;;;;3.50;3.20;;;8.70;99.90;;;;;;5053898;28;20470;-68
2022/04/08 06:03:23;;;;;;;6.67;5.23;;;8.40;99.90;;;;;;5053632;28;20921;-67
2022/04/08 06:05:48;;;;;;;5.70;4.83;;;8.70;99.90;;;;;;5054672;28;20423;-67
2022/04/08 06:08:14;;;;;;;7.37;4.30;;;8.70;99.90;;;;;;5053360;28;20181;-66
2022/04/08 06:10:40;;;;;;;10.47;6.53;;;8.70;99.90;;;;;;5055217;28;20174;-66
2022/04/08 06:13:06;;;;;;;6.43;5.70;;;8.70;99.90;;;;;;5053863;28;20186;-67
2022/04/08 06:15:31;;;;;;;6.03;5.43;;;8.70;99.90;;;;;;5055002;28;20500;-67
2022/04/08 06:17:57;;;;;;;7.83;5.30;;;8.80;99.90;;;;;;5054873;28;20181;-67
2022/04/08 06:20:24;;;;;;;11.60;6.27;;;8.70;99.90;;;;;;5053854;28;20693;-67
2022/04/08 06:22:51;;;;;;;7.10;6.33;;;8.70;99.90;;;;;;5057047;28;20947;-66
2022/04/08 06:25:18;;;;;;;10.27;7.67;;;8.40;99.90;;;;;;5055222;28;20420;-70
2022/04/08 06:27:45;;;;;;;6.37;5.87;;;8.70;99.90;;;;;;5054385;28;20462;-66
2022/04/08 06:30:14;;;;;;;10.80;6.70;;;8.40;99.90;;;;;;5053676;28;20420;-67
2022/04/08 06:32:42;;;;;;;12.30;7.33;;;8.80;99.90;;;;;;5053861;28;20435;-67
2022/04/08 06:35:07;;;;;;;10.07;5.80;;;8.80;99.90;;;;;;5053599;28;20455;-67
2022/04/08 06:37:33;;;;;;;10.33;5.90;;;8.90;99.90;;;;;;5054381;28;20813;-70
2022/04/08 06:40:05;;;;;;;9.63;7.20;;;8.90;99.90;;;;;;5053204;28;20420;-67
2022/04/08 06:42:31;;;;;;;8.37;6.90;;;9.00;99.90;;;;;;5053850;28;20464;-68
2022/04/08 06:44:57;;;;;;;6.80;5.13;;;9.00;99.90;;;;;;5052682;28;20443;-68
2022/04/08 06:47:24;;;;;;;7.80;7.00;;;9.10;99.90;;;;;;5053443;28;20209;-67
2022/04/08 06:49:49;;;;;;;7.47;5.80;;;9.20;99.90;;;;;;5052572;28;20693;-67
2022/04/08 06:52:15;;;;;;;8.27;5.00;;;9.10;99.90;;;;;;5052871;28;20567;-67
2022/04/08 06:54:41;;;;;;;5.60;5.10;;;9.20;99.90;;;;;;5054039;28;20188;-67
2022/04/08 06:57:07;;;;;;;9.67;5.30;;;9.30;99.90;;;;;;5053007;28;20182;-67
2022/04/08 06:59:34;;;;;;;6.60;5.40;;;9.20;99.90;;;;;;5054117;28;20258;-68
2022/04/08 07:02:00;;;;;;;7.30;4.93;;;9.30;99.90;;;;;;5053783;28;20456;-67
2022/04/08 07:04:26;;;;;;;9.50;5.30;;;9.30;99.90;;;;;;5053030;28;20408;-67
2022/04/08 07:06:52;;;;;;;6.30;4.80;;;9.20;99.90;;;;;;5053883;28;20201;-67
2022/04/08 07:09:19;;;;;;;6.93;4.60;;;9.20;99.90;;;;;;5052201;28;20417;-66
2022/04/08 07:11:46;;;;;;;8.47;5.43;;;9.30;99.90;;;;;;5053913;28;20511;-67
2022/04/08 07:14:13;;;;;;;11.23;6.97;;;9.40;99.90;;;;;;5052763;28;20839;-68
2022/04/08 07:16:41;;;;;;;8.93;5.80;;;9.40;99.90;;;;;;5053651;28;20416;-67
2022/04/08 07:19:10;;;;;;;9.20;5.73;;;9.40;99.90;;;;;;5053071;28;20420;-67
2022/04/08 07:21:35;;;;;;;10.30;7.03;;;9.20;99.90;;;;;;5053952;28;20466;-67
2022/04/08 07:24:01;;;;;;;7.57;5.93;;;9.60;99.80;;;;;;5051722;28;20496;-67
2022/04/08 07:26:27;;;;;;;7.30;6.60;;;9.20;99.60;;;;;;5052749;28;20178;-67
2022/04/08 07:28:52;;;;;;;8.40;5.90;;;9.60;98.40;;;;;;5052154;28;20170;-67
2022/04/08 07:31:18;;;;;;;7.30;6.60;;;9.80;98.70;;;;;;5052789;28;20216;-68
2022/04/08 07:33:44;;;;;;;8.03;6.00;;;9.80;97.40;;;;;;5053232;28;20201;-68
2022/04/08 07:36:11;;;;;;;6.57;5.93;;;9.70;97.60;;;;;;5053205;28;20613;-67
2022/04/08 07:38:37;;;;;;;6.50;5.70;;;9.80;97.10;;;;;;5053278;28;20175;-67
2022/04/08 07:41:03;;;;;;;7.13;5.77;;;9.90;97.60;;;;;;5052967;28;20427;-67
2022/04/08 07:43:29;;;;;;;5.67;5.27;;;9.80;97.30;;;;;;5051810;28;20446;-67
2022/04/08 07:45:56;;;;;;;5.90;5.30;;;9.80;95.10;;;;;;5052592;28;20542;-67
2022/04/08 07:48:22;;;;;;;7.30;5.83;;;9.80;95.30;;;;;;5051608;28;20187;-67
2022/04/08 07:50:47;;;;;;;6.80;5.73;;;9.90;95.70;;;;;;5053104;28;20447;-67
2022/04/08 07:53:13;;;;;;;6.10;5.60;;;9.90;95.60;;;;;;5051126;28;20183;-67
2022/04/08 07:55:39;;;;;;;7.43;6.20;;;9.90;95.10;;;;;;5052947;28;20640;-67
2022/04/08 07:58:05;;;;;;;9.53;6.70;;;10.00;95.00;;;;;;5053104;28;20176;-67
2022/04/08 08:00:32;;;;;;;6.80;5.73;;;10.00;94.70;;;;;;5052361;28;20179;-67
2022/04/08 08:02:58;;;;;;;6.23;5.63;;;10.10;95.10;;;;;;5052612;28;20457;-67
2022/04/08 08:05:25;;;;;;;11.60;5.80;;;10.20;94.80;;;;;;5050948;28;20449;-67
2022/04/08 08:07:57;;;;;;;8.60;7.97;;;10.10;93.80;;;;;;5052477;28;20436;-68
2022/04/08 08:10:25;;;;;;;6.10;5.50;;;10.10;93.80;;;;;;5051917;28;20476;-75
2022/04/08 08:12:53;;;;;;;7.93;6.53;;;10.20;93.90;;;;;;5033064;28;20501;-67
2022/04/08 08:15:19;;;;;;;7.40;6.70;;;10.30;94.00;;;;;;5050861;28;20431;-68
2022/04/08 08:17:46;;;;;;;6.20;5.60;;;10.30;93.40;;;;;;5052318;28;20423;-67
2022/04/08 08:20:13;;;;;;;7.97;7.27;;;10.40;93.30;;;;;;5051492;28;20467;-67
2022/04/08 08:22:41;;;;;;;6.67;5.80;;;10.50;94.10;;;;;;5052139;28;20460;-67
2022/04/08 08:25:08;;;;;;;6.30;5.50;;;10.50;92.80;;;;;;5052652;28;20422;-67
2022/04/08 08:27:54;;;;;;;6.97;6.47;;;10.50;92.30;;;;;;5050600;28;20410;-67
2022/04/08 08:30:21;;;;;;;6.60;6.10;;;10.50;91.00;;;;;;5051113;28;20417;-67
2022/04/08 08:32:49;;;;;;;7.27;6.60;;;10.50;91.40;;;;;;5052019;28;20453;-67
2022/04/08 08:35:18;;;;;;;6.20;5.80;;;10.60;92.10;;;;;;5051866;28;20413;-67
2022/04/08 08:37:46;;;;;;;6.40;5.70;;;10.60;91.60;;;;;;5050997;28;20905;-67
2022/04/08 08:40:13;;;;;;;5.63;5.20;;;10.60;90.80;;;;;;5039041;28;20429;-68
2022/04/08 08:42:40;;;;;;;6.37;4.70;;;10.60;90.70;;;;;;5032505;28;20456;-67
2022/04/08 08:45:08;;;;;;;6.73;6.13;;;10.70;89.70;;;;;;5032544;28;20462;-67
2022/04/08 08:47:34;;;;;;;6.57;5.97;;;10.60;89.00;;;;;;5032400;28;20781;-67
2022/04/08 08:50:00;;;;;;;4.97;4.57;;;10.50;88.30;;;;;;5036884;28;20417;-67
2022/04/08 08:52:28;;;;;;;7.43;6.67;;;10.60;90.00;;;;;;5071837;28;20427;-68
2022/04/08 08:54:54;;;;;;;5.83;5.33;;;10.70;90.10;;;;;;5072152;28;20406;-67
2022/04/08 08:57:22;;;;;;;5.67;5.17;;;10.60;90.20;;;;;;5066327;28;20455;-67
2022/04/08 08:59:51;;;;;;;7.20;6.60;;;10.70;90.30;;;;;;5051617;28;20419;-67
2022/04/08 09:02:22;;;;;;;6.27;5.60;;;10.70;90.30;;;;;;5051920;28;20488;-68
2022/04/08 09:04:51;;;;;;;5.50;5.10;;;10.60;89.10;;;;;;5051559;28;20391;-67
2022/04/08 09:07:28;;;;;;;7.47;6.00;;;10.70;89.10;;;;;;5051749;28;20419;-68
2022/04/08 09:09:55;;;;;;;6.40;5.80;;;10.80;88.20;;;;;;5052262;28;20419;-67
2022/04/08 09:12:26;;;;;;;7.60;7.10;;;10.80;88.80;;;;;;5046919;28;20483;-66
2022/04/08 09:14:53;;;;;;;7.67;7.07;;;10.80;90.00;;;;;;5052745;28;20429;-67
2022/04/08 09:17:21;;;;;;;8.07;6.80;;;10.70;89.50;;;;;;5055447;28;20419;-67
2022/04/08 09:19:51;;;;;;;6.77;5.70;;;10.80;89.00;;;;;;5055627;28;20741;-67
2022/04/08 09:22:18;;;;;;;7.87;7.17;;;10.80;89.60;;;;;;5037582;28;20509;-68
2022/04/08 09:24:44;;;;;;;7.33;6.73;;;10.90;88.80;;;;;;5055251;28;20412;-67
2022/04/08 09:27:11;;;;;;;7.33;6.63;;;10.90;87.50;;;;;;5055795;28;20986;-68
2022/04/08 09:29:37;;;;;;;7.13;6.43;;;11.00;88.30;;;;;;5055322;28;20858;-68
2022/04/08 09:32:10;;;;;;;7.63;6.80;;;11.00;86.10;;;;;;5064076;28;20458;-67
2022/04/08 09:34:37;;;;;;;6.87;6.17;;;11.10;88.40;;;;;;5055184;28;20439;-67
2022/04/08 09:37:10;;;;;;;6.67;6.07;;;11.10;87.00;;;;;;5055746;28;20433;-67
2022/04/08 09:39:37;;;;;;;8.20;7.50;;;11.00;87.70;;;;;;5053937;28;20501;-68
2022/04/08 09:42:06;;;;;;;6.20;5.50;;;11.20;84.20;;;;;;5055677;28;20469;-67
2022/04/08 09:44:35;;;;;;;5.90;5.30;;;11.30;83.80;;;;;;5054807;28;20428;-67
2022/04/08 09:47:02;;;;;;;5.37;4.90;;;11.20;82.00;;;;;;5046648;28;20421;-66
2022/04/08 09:49:28;;;;;;;5.40;4.90;;;11.30;81.10;;;;;;5037165;28;20413;-66
2022/04/08 09:51:56;;;;;;;4.23;3.90;;;11.30;79.60;;;;;;5055220;28;20444;-67
2022/04/08 09:54:27;;;;;;;6.17;5.77;;;11.30;79.20;;;;;;5034915;28;20440;-69
2022/04/08 09:56:56;;;;;;;4.97;4.67;;;11.20;77.90;;;;;;5049159;28;20490;-66
2022/04/08 09:59:23;;;;;;;4.90;4.60;;;11.20;78.10;;;;;;5052586;28;20439;-67
2022/04/08 10:01:55;;;;;;;4.17;3.83;;;11.30;79.40;;;;;;5053205;28;20466;-66
2022/04/08 10:04:22;;;;;;;5.33;4.13;;;11.30;75.50;;;;;;5054020;28;20409;-66
2022/04/08 10:06:48;;;;;;;4.63;4.23;;;11.40;74.90;;;;;;5054837;28;20469;-66
2022/04/08 10:09:17;;;;;;;4.93;4.53;;;11.40;74.40;;;;;;5055045;28;20462;-84
2022/04/08 10:12:04;;;;;;;5.07;4.67;;;11.40;76.00;;;;;;5055196;28;20911;-67
2022/04/08 10:14:35;;;;;;;5.07;4.70;;;11.40;75.90;;;;;;5054578;28;20424;-67
2022/04/08 10:17:02;;;;;;;5.40;4.83;;;11.50;78.10;;;;;;5054813;28;20910;-67
2022/04/08 10:19:31;;;;;;;4.10;3.77;;;11.40;74.90;;;;;;5054450;28;20477;-67
2022/04/08 10:21:57;;;;;;;5.37;3.37;;;11.40;71.30;;;;;;5055052;28;20467;-66
2022/04/08 10:24:28;;;;;;;5.67;3.27;;;11.50;73.10;;;;;;5054304;28;20498;-67
2022/04/08 10:27:09;;;;;;;6.03;3.93;;;11.50;76.00;;;;;;5053849;28;20934;-66
2022/04/08 10:29:36;;;;;;;5.57;4.10;;;11.70;75.60;;;;;;5053059;28;20425;-66
2022/04/08 10:32:04;;;;;;;4.30;3.90;;;11.50;73.50;;;;;;5054446;28;20934;-66
2022/04/08 10:34:32;;;;;;;4.60;3.50;;;11.50;74.40;;;;;;5053835;28;20432;-67
2022/04/08 10:37:14;;;;;;;5.10;4.60;;;11.50;76.20;;;;;;5054567;28;20466;-66
2022/04/08 10:39:42;;;;;;;4.10;3.80;;;11.50;75.10;;;;;;5054072;28;20872;-67
2022/04/08 10:42:20;;;;;;;3.73;3.37;;;11.60;77.20;;;;;;5054057;28;20477;-66
2022/04/08 10:44:46;;;;;;;3.83;3.63;;;11.50;75.90;;;;;;5054620;28;20402;-66
2022/04/08 10:47:17;;;;;;;4.20;3.90;;;11.60;78.10;;;;;;5054053;28;20427;-67
2022/04/08 10:50:01;;;;;;;4.80;4.20;;;11.60;77.10;;;;;;5053678;28;20168;-67
2022/04/08 10:52:30;;;;;;;6.90;6.50;;;11.70;79.30;;;;;;5035565;28;20412;-67
2022/04/08 10:55:10;;;;;;;4.33;3.93;;;11.70;77.80;;;;;;5052591;28;20415;-66
2022/04/08 10:57:45;;;;;;;5.87;5.47;;;11.70;77.20;;;;;;5053640;28;20432;-66
2022/04/08 11:00:17;;;;;;;5.73;5.30;;;11.70;78.90;;;;;;5054416;28;20399;-66
2022/04/08 11:02:46;;;;;;;4.47;4.03;;;11.70;76.70;;;;;;5054516;28;20439;-67
2022/04/08 11:05:13;;;;;;;6.03;5.70;;;11.70;76.70;;;;;;5054465;28;20411;-68
2022/04/08 11:07:42;;;;;;;5.30;4.90;;;11.70;76.40;;;;;;5053508;28;20506;-68
2022/04/08 11:10:19;;;;;;;4.40;3.97;;;11.70;76.50;;;;;;5054045;28;20459;-68
2022/04/08 11:12:54;;;;;;;5.47;4.73;;;11.60;75.30;;;;;;5054227;28;20419;-68
2022/04/08 11:15:28;;;;;;;3.87;3.57;;;11.60;73.40;;;;;;5053542;28;20406;-69
2022/04/08 11:17:54;;;;;;;5.10;4.70;;;11.60;74.20;;;;;;5052600;28;20486;-67
2022/04/08 11:20:21;;;;;;;4.20;4.00;;;11.60;73.10;;;;;;5053251;28;20450;-69
2022/04/08 11:22:54;;;;;;;4.40;4.10;;;11.60;73.20;;;;;;5053970;28;20590;-68
2022/04/08 11:25:25;;;;;;;8.27;6.10;;;11.50;76.20;;;;;;5052022;28;20422;-70
2022/04/08 11:28:03;;;;;;;4.70;4.40;;;11.50;77.10;;;;;;5053613;28;20385;-68
2022/04/08 11:30:31;;;;;;;6.47;4.20;;;11.40;76.20;;;;;;5053271;28;20808;-68
2022/04/08 11:32:58;;;;;;;4.37;4.07;;;11.50;74.80;;;;;;5052727;28;20748;-68
2022/04/08 11:35:28;;;;;;;4.90;4.60;;;11.40;74.60;;;;;;5053194;28;20406;-68
2022/04/08 11:37:55;;;;;;;4.87;4.43;;;11.50;74.00;;;;;;5053541;28;20406;-68
2022/04/08 11:40:21;;;;;;;4.63;4.33;;;11.50;76.00;;;;;;5053247;28;20412;-70
2022/04/08 11:42:47;;;;;;;5.50;4.43;;;11.50;76.00;;;;;;5053327;28;20554;-68
2022/04/08 11:45:15;;;;;;;3.87;3.57;;;11.60;77.10;;;;;;5053511;28;20483;-68
2022/04/08 11:47:48;;;;;;;3.77;3.57;;;11.60;77.80;;;;;;5052803;28;20407;-68
2022/04/08 11:50:26;;;;;;;5.20;4.87;;;11.70;76.00;;;;;;5053380;28;20716;-68
2022/04/08 11:52:56;;;;;;;5.60;5.30;;;11.70;73.30;;;;;;5053529;28;20482;-68
2022/04/08 11:55:27;;;;;;;5.27;4.97;;;11.50;72.20;;;;;;5052757;28;20794;-69
2022/04/08 11:57:53;;;;;;;4.90;4.60;;;11.50;74.70;;;;;;5051806;28;20799;-68
2022/04/08 12:00:30;;;;;;;6.13;5.67;;;11.50;75.60;;;;;;5053332;28;20521;-68
2022/04/08 12:02:59;;;;;;;6.07;5.40;;;11.60;76.50;;;;;;5051505;28;20436;-68
2022/04/08 12:05:27;;;;;;;5.90;5.60;;;11.60;74.50;;;;;;5052016;28;20748;-68
2022/04/08 12:07:57;;;;;;;6.23;5.77;;;11.70;73.90;;;;;;5052519;28;20504;-68
2022/04/08 12:10:23;;;;;;;5.70;5.30;;;11.70;74.00;;;;;;5051955;28;20580;-69
2022/04/08 12:12:50;;;;;;;4.23;3.90;;;11.70;75.00;;;;;;5052747;28;20409;-68
2022/04/08 12:15:21;;;;;;;4.30;3.90;;;11.80;73.70;;;;;;5051791;28;20432;-68
2022/04/08 12:17:46;;;;;;;5.40;4.93;;;11.80;74.10;;;;;;5051212;28;20487;-67
2022/04/08 12:20:17;;;;;;;5.07;4.77;;;11.70;71.70;;;;;;5052788;28;20543;-69
2022/04/08 12:22:46;;;;;;;5.10;4.80;;;11.80;71.90;;;;;;5052383;28;20414;-68
2022/04/08 12:25:13;;;;;;;5.27;4.97;;;11.80;74.00;;;;;;5052479;28;20498;-68
2022/04/08 12:27:39;;;;;;;5.73;5.43;;;11.80;75.50;;;;;;5052221;28;20463;-68
2022/04/08 12:30:09;;;;;;;4.70;4.40;;;11.90;75.30;;;;;;5051542;28;20767;-68
2022/04/08 12:32:43;;;;;;;8.40;5.70;;;11.80;72.30;;;;;;5050893;28;20887;-68
2022/04/08 12:35:12;;;;;;;4.13;3.93;;;11.90;72.00;;;;;;5052653;28;20412;-68
2022/04/08 12:37:38;;;;;;;6.30;5.70;;;11.80;74.10;;;;;;5051953;28;20503;-68
2022/04/08 12:40:05;;;;;;;4.53;4.27;;;11.80;71.90;;;;;;5052434;28;20876;-68
2022/04/08 12:42:35;;;;;;;3.90;3.60;;;11.90;69.20;;;;;;5051852;28;20562;-68
2022/04/08 12:45:01;;;;;;;3.70;3.47;;;11.90;69.00;;;;;;5052336;28;20770;-68
2022/04/08 12:47:27;;;;;;;5.37;4.90;;;11.90;68.10;;;;;;5051779;28;20781;-68
2022/04/08 12:49:53;;;;;;;4.40;4.10;;;11.90;68.20;;;;;;5054026;28;20410;-68
2022/04/08 12:52:18;;;;;;;4.80;4.50;;;11.90;69.20;;;;;;5059121;28;20196;-68
2022/04/08 12:54:44;;;;;;;5.00;3.80;;;11.90;71.00;;;;;;5057246;28;20203;-68